Tie Siding, WY (82084)

4:18 PM MST on February 28, 2015 (GMT -0700)
WYDOT Pumpkin Vine US 287 south of Laramie | Change Station
CLOSE
Current Station
Personal Weather Station
Location: Tie Siding, WY
Elevation: 8097 ft
Nearby Weather Stations

Elev 8097 ft 41.05 °N, 105.47 °W | Updated 73 days ago

Snow
Snow
10 °F
Feels Like -3 °F
N
12
Wind Variable Wind from ESE
Gusts 16 mph

Today
High -- | Low -- °F
--% Chance of Precip.
Yesterday
High -- | Low -- °F
Precip. -- in
6:37 AM 5:51 PM
Waxing Gibbous, 80% visible
Pressure 30.03 in
Visibility 10.0 miles
Clouds Clear
Windchill -3 °F
Dew Point 9 °F
Humidity 90%
Rainfall -999.00 in
Snow Depth Not available.
UV 2 out of 12
Pollen .50 out of 12
Air Quality Not available.
Flu Activity Not available.
METAR KLAR 282253Z AUTO 16017KT 10SM CLR M08/M13 A2979 RMK AO2 SLP169 T10781128 $

More Conditions Fewer Conditions

Pressure 30.03 in
Visibility 10.0 miles
Clouds Clear
Windchill -3 °F
Dew Point 9 °F
Humidity 90%
Rainfall -999.00 in
Snow Depth Not available.
UV 2 out of 12
Pollen .50 out of 12
Air Quality Not available.
Flu Activity Not available.
METAR KLAR 282253Z AUTO 16017KT 10SM CLR M08/M13 A2979 RMK AO2 SLP169 T10781128 $

More Conditions Fewer Conditions

10-Day Weather Forecast

Almanac

Astronomy

Feb. 28, 2015 Rise Set
Actual Time
Civil Twilight
Nautical Twilight
Astronomical Twilight
Moon
Length of Visible Light
Length of Day
Tomorrow will be .
, % of the Moon is Illuminated

Today's Extremes

State Highs State Lows

Community

WunderPhotos

Upload Photos

1,801,166 photos uploaded!

WunderBlogs® & News

Nearby

Air Quality

  Air Quality AQ Index Pollutant
Not available.

Snow Depth

Station Depth Elevation

Earthquake Activity

City Distance Mag. Time & Date
Minimum magnitude displayed is 2.5.

Coastal Water Temperatures

Place Temperature

Nearby Weather Stations